sensor_id;sensor_type;location;lat;lon;timestamp;temperature;humidity
47532;DHT22;33273;52.254;7.988;2022-12-18T00:00:59;-10.10;84.00
47532;DHT22;33273;52.254;7.988;2022-12-18T00:03:25;-10.10;84.10
47532;DHT22;33273;52.254;7.988;2022-12-18T00:05:51;-10.10;83.90
47532;DHT22;33273;52.254;7.988;2022-12-18T00:08:18;-10.10;83.70
47532;DHT22;33273;52.254;7.988;2022-12-18T00:10:45;-10.10;83.60
47532;DHT22;33273;52.254;7.988;2022-12-18T00:13:11;-10.10;83.50
47532;DHT22;33273;52.254;7.988;2022-12-18T00:15:39;-10.10;83.30
47532;DHT22;33273;52.254;7.988;2022-12-18T00:18:09;-10.10;83.30
47532;DHT22;33273;52.254;7.988;2022-12-18T00:20:37;-10.10;83.80
47532;DHT22;33273;52.254;7.988;2022-12-18T00:23:04;-10.10;83.80
47532;DHT22;33273;52.254;7.988;2022-12-18T00:25:33;-10.20;82.70
47532;DHT22;33273;52.254;7.988;2022-12-18T00:27:59;-10.20;82.80
47532;DHT22;33273;52.254;7.988;2022-12-18T00:30:25;-10.20;83.10
47532;DHT22;33273;52.254;7.988;2022-12-18T00:32:51;-10.20;83.10
47532;DHT22;33273;52.254;7.988;2022-12-18T00:35:17;-10.20;83.00
47532;DHT22;33273;52.254;7.988;2022-12-18T00:37:43;-10.20;82.90
47532;DHT22;33273;52.254;7.988;2022-12-18T00:40:11;-10.20;82.90
47532;DHT22;33273;52.254;7.988;2022-12-18T00:42:37;-10.20;82.70
47532;DHT22;33273;52.254;7.988;2022-12-18T00:45:24;-10.20;83.20
47532;DHT22;33273;52.254;7.988;2022-12-18T00:47:52;-10.20;83.20
47532;DHT22;33273;52.254;7.988;2022-12-18T00:50:18;-10.20;83.30
47532;DHT22;33273;52.254;7.988;2022-12-18T00:52:44;-10.10;83.40
47532;DHT22;33273;52.254;7.988;2022-12-18T00:55:11;-10.10;83.40
47532;DHT22;33273;52.254;7.988;2022-12-18T00:57:37;-10.20;83.10
47532;DHT22;33273;52.254;7.988;2022-12-18T01:00:05;-10.20;83.20
47532;DHT22;33273;52.254;7.988;2022-12-18T01:02:32;-10.10;83.40
47532;DHT22;33273;52.254;7.988;2022-12-18T01:04:58;-10.10;83.80
47532;DHT22;33273;52.254;7.988;2022-12-18T01:07:24;-10.10;83.80
47532;DHT22;33273;52.254;7.988;2022-12-18T01:09:53;-10.10;83.80
47532;DHT22;33273;52.254;7.988;2022-12-18T01:12:19;-10.10;83.70
47532;DHT22;33273;52.254;7.988;2022-12-18T01:14:45;-10.10;83.70
47532;DHT22;33273;52.254;7.988;2022-12-18T01:17:11;-10.10;83.50
47532;DHT22;33273;52.254;7.988;2022-12-18T01:19:37;-10.10;83.70
47532;DHT22;33273;52.254;7.988;2022-12-18T01:22:03;-10.10;84.10
47532;DHT22;33273;52.254;7.988;2022-12-18T01:24:29;-10.10;84.10
47532;DHT22;33273;52.254;7.988;2022-12-18T01:26:54;-10.00;85.10
47532;DHT22;33273;52.254;7.988;2022-12-18T01:29:25;-10.00;85.90
47532;DHT22;33273;52.254;7.988;2022-12-18T01:31:55;-10.00;86.40
47532;DHT22;33273;52.254;7.988;2022-12-18T01:34:22;-10.00;86.70
47532;DHT22;33273;52.254;7.988;2022-12-18T01:36:48;-9.90;87.20
47532;DHT22;33273;52.254;7.988;2022-12-18T01:39:14;-9.90;87.30
47532;DHT22;33273;52.254;7.988;2022-12-18T01:41:41;-9.90;87.30
47532;DHT22;33273;52.254;7.988;2022-12-18T01:53:21;-9.90;87.30
47532;DHT22;33273;52.254;7.988;2022-12-18T01:55:54;-9.90;87.20
47532;DHT22;33273;52.254;7.988;2022-12-18T01:58:24;-9.90;87.10
47532;DHT22;33273;52.254;7.988;2022-12-18T02:00:54;-9.90;87.10
47532;DHT22;33273;52.254;7.988;2022-12-18T02:03:20;-9.90;87.20
47532;DHT22;33273;52.254;7.988;2022-12-18T02:06:10;-9.90;87.30
47532;DHT22;33273;52.254;7.988;2022-12-18T02:08:57;-9.80;87.70
47532;DHT22;33273;52.254;7.988;2022-12-18T02:16:57;-9.70;88.60
47532;DHT22;33273;52.254;7.988;2022-12-18T02:24:59;-9.70;88.30
47532;DHT22;33273;52.254;7.988;2022-12-18T02:27:29;-9.70;89.20
47532;DHT22;33273;52.254;7.988;2022-12-18T02:29:57;-9.60;90.30
47532;DHT22;33273;52.254;7.988;2022-12-18T02:32:30;-9.60;90.20
47532;DHT22;33273;52.254;7.988;2022-12-18T02:34:59;-9.50;90.50
47532;DHT22;33273;52.254;7.988;2022-12-18T02:37:28;-9.60;90.30
47532;DHT22;33273;52.254;7.988;2022-12-18T02:39:59;-9.60;90.20
47532;DHT22;33273;52.254;7.988;2022-12-18T02:42:26;-9.60;90.30
47532;DHT22;33273;52.254;7.988;2022-12-18T02:44:54;-9.60;90.20
47532;DHT22;33273;52.254;7.988;2022-12-18T02:47:30;-9.70;90.10
47532;DHT22;33273;52.254;7.988;2022-12-18T02:50:22;-9.70;89.90
47532;DHT22;33273;52.254;7.988;2022-12-18T03:00:48;-9.90;88.30
47532;DHT22;33273;52.254;7.988;2022-12-18T03:04:10;-9.90;88.10
47532;DHT22;33273;52.254;7.988;2022-12-18T03:06:21;-9.90;88.30
47532;DHT22;33273;52.254;7.988;2022-12-18T03:08:54;-9.90;88.50
47532;DHT22;33273;52.254;7.988;2022-12-18T03:11:25;-9.90;88.60
47532;DHT22;33273;52.254;7.988;2022-12-18T03:14:23;-9.90;88.50
47532;DHT22;33273;52.254;7.988;2022-12-18T03:16:53;-9.90;88.70
47532;DHT22;33273;52.254;7.988;2022-12-18T03:19:22;-9.80;89.60
47532;DHT22;33273;52.254;7.988;2022-12-18T03:21:54;-9.80;89.50
47532;DHT22;33273;52.254;7.988;2022-12-18T03:24:24;-9.80;89.70
47532;DHT22;33273;52.254;7.988;2022-12-18T03:27:00;-9.80;89.70
47532;DHT22;33273;52.254;7.988;2022-12-18T03:29:48;-9.80;89.70
47532;DHT22;33273;52.254;7.988;2022-12-18T03:32:30;-9.90;89.60
47532;DHT22;33273;52.254;7.988;2022-12-18T03:35:00;-9.90;89.30
47532;DHT22;33273;52.254;7.988;2022-12-18T03:37:32;-9.90;89.10
47532;DHT22;33273;52.254;7.988;2022-12-18T03:39:58;-10.00;88.60
47532;DHT22;33273;52.254;7.988;2022-12-18T03:43:10;-9.90;88.50
47532;DHT22;33273;52.254;7.988;2022-12-18T03:45:51;-10.00;88.50
47532;DHT22;33273;52.254;7.988;2022-12-18T03:48:32;-9.90;88.80
47532;DHT22;33273;52.254;7.988;2022-12-18T03:51:13;-9.90;89.00
47532;DHT22;33273;52.254;7.988;2022-12-18T03:53:54;-9.90;89.00
47532;DHT22;33273;52.254;7.988;2022-12-18T03:56:30;-9.90;88.90
47532;DHT22;33273;52.254;7.988;2022-12-18T03:58:59;-10.00;89.10
47532;DHT22;33273;52.254;7.988;2022-12-18T04:01:32;-9.90;89.80
47532;DHT22;33273;52.254;7.988;2022-12-18T04:04:00;-9.90;90.00
47532;DHT22;33273;52.254;7.988;2022-12-18T04:06:29;-9.90;90.10
47532;DHT22;33273;52.254;7.988;2022-12-18T04:08:57;-9.90;90.20
47532;DHT22;33273;52.254;7.988;2022-12-18T04:11:25;-9.90;90.10
47532;DHT22;33273;52.254;7.988;2022-12-18T04:13:56;-9.90;90.00
47532;DHT22;33273;52.254;7.988;2022-12-18T04:16:26;-9.90;90.00
47532;DHT22;33273;52.254;7.988;2022-12-18T04:18:55;-9.90;89.90
47532;DHT22;33273;52.254;7.988;2022-12-18T04:21:23;-9.90;89.80
47532;DHT22;33273;52.254;7.988;2022-12-18T04:23:49;-9.90;89.70
47532;DHT22;33273;52.254;7.988;2022-12-18T04:26:18;-9.90;89.70
47532;DHT22;33273;52.254;7.988;2022-12-18T04:29:06;-9.90;89.70
47532;DHT22;33273;52.254;7.988;2022-12-18T04:31:33;-9.90;89.60
47532;DHT22;33273;52.254;7.988;2022-12-18T04:33:59;-9.90;89.50
47532;DHT22;33273;52.254;7.988;2022-12-18T04:36:25;-9.90;89.30
47532;DHT22;33273;52.254;7.988;2022-12-18T04:38:52;-10.00;88.90
47532;DHT22;33273;52.254;7.988;2022-12-18T04:41:18;-10.00;88.70
47532;DHT22;33273;52.254;7.988;2022-12-18T04:43:47;-10.00;88.70
47532;DHT22;33273;52.254;7.988;2022-12-18T04:46:14;-10.00;88.70
47532;DHT22;33273;52.254;7.988;2022-12-18T04:48:40;-10.00;88.50
47532;DHT22;33273;52.254;7.988;2022-12-18T04:51:06;-10.00;88.20
47532;DHT22;33273;52.254;7.988;2022-12-18T04:53:32;-10.10;87.90
47532;DHT22;33273;52.254;7.988;2022-12-18T04:56:10;-10.10;87.80
47532;DHT22;33273;52.254;7.988;2022-12-18T04:58:37;-10.10;87.90
47532;DHT22;33273;52.254;7.988;2022-12-18T05:01:05;-10.10;87.90
47532;DHT22;33273;52.254;7.988;2022-12-18T05:03:31;-10.10;88.30
47532;DHT22;33273;52.254;7.988;2022-12-18T05:05:57;-10.10;88.50
47532;DHT22;33273;52.254;7.988;2022-12-18T05:08:23;-10.00;89.60
47532;DHT22;33273;52.254;7.988;2022-12-18T05:10:49;-10.00;89.70
47532;DHT22;33273;52.254;7.988;2022-12-18T05:13:16;-10.00;89.80
47532;DHT22;33273;52.254;7.988;2022-12-18T05:15:42;-9.90;90.10
47532;DHT22;33273;52.254;7.988;2022-12-18T05:18:08;-9.90;90.10
47532;DHT22;33273;52.254;7.988;2022-12-18T05:20:34;-9.90;90.10
47532;DHT22;33273;52.254;7.988;2022-12-18T05:23:00;-10.00;89.90
47532;DHT22;33273;52.254;7.988;2022-12-18T05:25:26;-9.90;89.90
47532;DHT22;33273;52.254;7.988;2022-12-18T05:27:51;-10.00;89.80
47532;DHT22;33273;52.254;7.988;2022-12-18T05:30:18;-9.90;89.80
47532;DHT22;33273;52.254;7.988;2022-12-18T05:32:43;-10.00;89.70
47532;DHT22;33273;52.254;7.988;2022-12-18T05:35:10;-10.00;90.10
47532;DHT22;33273;52.254;7.988;2022-12-18T05:37:37;-9.90;90.30
47532;DHT22;33273;52.254;7.988;2022-12-18T05:40:04;-9.90;90.80
47532;DHT22;33273;52.254;7.988;2022-12-18T05:42:30;-9.80;90.80
47532;DHT22;33273;52.254;7.988;2022-12-18T05:44:56;-9.80;90.70
47532;DHT22;33273;52.254;7.988;2022-12-18T05:47:22;-9.80;90.60
47532;DHT22;33273;52.254;7.988;2022-12-18T05:49:48;-9.90;90.50
47532;DHT22;33273;52.254;7.988;2022-12-18T05:52:13;-9.90;90.40
47532;DHT22;33273;52.254;7.988;2022-12-18T05:54:39;-9.90;90.10
47532;DHT22;33273;52.254;7.988;2022-12-18T05:57:06;-9.90;90.20
47532;DHT22;33273;52.254;7.988;2022-12-18T05:59:32;-9.90;90.00
47532;DHT22;33273;52.254;7.988;2022-12-18T06:01:58;-9.90;89.80
47532;DHT22;33273;52.254;7.988;2022-12-18T06:04:23;-9.90;89.80
47532;DHT22;33273;52.254;7.988;2022-12-18T06:06:49;-9.90;90.30
47532;DHT22;33273;52.254;7.988;2022-12-18T06:09:15;-9.90;90.60
47532;DHT22;33273;52.254;7.988;2022-12-18T06:11:42;-9.90;90.70
47532;DHT22;33273;52.254;7.988;2022-12-18T06:14:09;-9.80;90.90
47532;DHT22;33273;52.254;7.988;2022-12-18T06:16:35;-9.90;90.80
47532;DHT22;33273;52.254;7.988;2022-12-18T06:19:03;-9.90;90.80
47532;DHT22;33273;52.254;7.988;2022-12-18T06:21:30;-9.90;90.70
47532;DHT22;33273;52.254;7.988;2022-12-18T06:23:57;-9.90;90.60
47532;DHT22;33273;52.254;7.988;2022-12-18T06:26:23;-9.90;90.40
47532;DHT22;33273;52.254;7.988;2022-12-18T06:28:49;-9.90;90.20
47532;DHT22;33273;52.254;7.988;2022-12-18T06:31:15;-9.90;90.20
47532;DHT22;33273;52.254;7.988;2022-12-18T06:33:41;-9.90;90.50
47532;DHT22;33273;52.254;7.988;2022-12-18T06:36:12;-9.90;90.60
47532;DHT22;33273;52.254;7.988;2022-12-18T06:38:39;-9.90;90.70
47532;DHT22;33273;52.254;7.988;2022-12-18T06:41:10;-9.90;90.70
47532;DHT22;33273;52.254;7.988;2022-12-18T06:43:37;-9.80;90.70
47532;DHT22;33273;52.254;7.988;2022-12-18T06:46:03;-9.80;90.80
47532;DHT22;33273;52.254;7.988;2022-12-18T06:48:30;-9.80;90.80
47532;DHT22;33273;52.254;7.988;2022-12-18T06:50:56;-9.80;90.80
47532;DHT22;33273;52.254;7.988;2022-12-18T06:53:22;-9.80;90.80
47532;DHT22;33273;52.254;7.988;2022-12-18T06:55:49;-9.60;92.60
47532;DHT22;33273;52.254;7.988;2022-12-18T06:58:15;-9.60;92.40
47532;DHT22;33273;52.254;7.988;2022-12-18T07:00:41;-9.60;92.20
47532;DHT22;33273;52.254;7.988;2022-12-18T07:03:08;-9.70;91.90
47532;DHT22;33273;52.254;7.988;2022-12-18T07:05:34;-9.80;91.70
47532;DHT22;33273;52.254;7.988;2022-12-18T07:08:05;-9.80;91.30
47532;DHT22;33273;52.254;7.988;2022-12-18T07:10:31;-9.90;90.80
47532;DHT22;33273;52.254;7.988;2022-12-18T07:12:56;-10.00;90.30
47532;DHT22;33273;52.254;7.988;2022-12-18T07:15:22;-10.00;90.20
47532;DHT22;33273;52.254;7.988;2022-12-18T07:17:48;-10.00;91.00
47532;DHT22;33273;52.254;7.988;2022-12-18T07:20:14;-10.00;90.30
47532;DHT22;33273;52.254;7.988;2022-12-18T07:22:40;-10.00;90.20
47532;DHT22;33273;52.254;7.988;2022-12-18T07:25:06;-10.00;90.40
47532;DHT22;33273;52.254;7.988;2022-12-18T07:27:32;-10.00;90.40
47532;DHT22;33273;52.254;7.988;2022-12-18T07:29:58;-10.10;90.20
47532;DHT22;33273;52.254;7.988;2022-12-18T07:32:24;-10.10;90.10
47532;DHT22;33273;52.254;7.988;2022-12-18T07:34:50;-10.10;90.00
47532;DHT22;33273;52.254;7.988;2022-12-18T07:37:16;-10.10;90.00
47532;DHT22;33273;52.254;7.988;2022-12-18T07:39:44;-10.10;90.00
47532;DHT22;33273;52.254;7.988;2022-12-18T07:42:10;-10.10;90.10
47532;DHT22;33273;52.254;7.988;2022-12-18T07:44:54;-10.10;90.10
47532;DHT22;33273;52.254;7.988;2022-12-18T07:47:20;-10.00;90.20
47532;DHT22;33273;52.254;7.988;2022-12-18T07:49:46;-10.00;90.40
47532;DHT22;33273;52.254;7.988;2022-12-18T07:52:12;-10.00;90.50
47532;DHT22;33273;52.254;7.988;2022-12-18T07:54:38;-10.00;90.50
47532;DHT22;33273;52.254;7.988;2022-12-18T07:57:06;-9.90;91.60
47532;DHT22;33273;52.254;7.988;2022-12-18T07:59:32;-9.80;92.50
47532;DHT22;33273;52.254;7.988;2022-12-18T08:01:57;-9.70;92.90
47532;DHT22;33273;52.254;7.988;2022-12-18T08:04:24;-9.70;93.00
47532;DHT22;33273;52.254;7.988;2022-12-18T08:06:50;-9.70;93.20
47532;DHT22;33273;52.254;7.988;2022-12-18T08:09:16;-9.70;93.20
47532;DHT22;33273;52.254;7.988;2022-12-18T08:11:42;-9.60;93.50
47532;DHT22;33273;52.254;7.988;2022-12-18T08:14:09;-9.50;93.80
47532;DHT22;33273;52.254;7.988;2022-12-18T08:16:35;-9.50;93.90
47532;DHT22;33273;52.254;7.988;2022-12-18T08:19:02;-9.40;94.00
47532;DHT22;33273;52.254;7.988;2022-12-18T08:21:29;-9.30;94.10
47532;DHT22;33273;52.254;7.988;2022-12-18T08:23:57;-9.20;94.60
47532;DHT22;33273;52.254;7.988;2022-12-18T08:26:26;-9.20;94.50
47532;DHT22;33273;52.254;7.988;2022-12-18T08:28:54;-9.10;94.70
47532;DHT22;33273;52.254;7.988;2022-12-18T08:31:20;-9.10;94.70
47532;DHT22;33273;52.254;7.988;2022-12-18T08:33:49;-9.00;94.70
47532;DHT22;33273;52.254;7.988;2022-12-18T08:36:15;-8.90;94.90
47532;DHT22;33273;52.254;7.988;2022-12-18T08:38:41;-8.90;95.00
47532;DHT22;33273;52.254;7.988;2022-12-18T08:41:13;-8.80;95.20
47532;DHT22;33273;52.254;7.988;2022-12-18T08:43:40;-8.70;95.50
47532;DHT22;33273;52.254;7.988;2022-12-18T08:46:25;-8.60;95.80
47532;DHT22;33273;52.254;7.988;2022-12-18T08:48:52;-8.60;95.80
47532;DHT22;33273;52.254;7.988;2022-12-18T08:51:19;-8.50;95.90
47532;DHT22;33273;52.254;7.988;2022-12-18T08:53:45;-8.40;96.10
47532;DHT22;33273;52.254;7.988;2022-12-18T08:56:12;-8.30;96.60
47532;DHT22;33273;52.254;7.988;2022-12-18T08:58:38;-8.20;96.80
47532;DHT22;33273;52.254;7.988;2022-12-18T09:01:06;-8.10;96.90
47532;DHT22;33273;52.254;7.988;2022-12-18T09:03:35;-8.00;96.90
47532;DHT22;33273;52.254;7.988;2022-12-18T09:06:01;-7.90;97.00
47532;DHT22;33273;52.254;7.988;2022-12-18T09:08:27;-7.80;96.80
47532;DHT22;33273;52.254;7.988;2022-12-18T09:10:53;-7.80;96.90
47532;DHT22;33273;52.254;7.988;2022-12-18T09:13:20;-7.70;97.10
47532;DHT22;33273;52.254;7.988;2022-12-18T09:15:49;-7.60;97.00
47532;DHT22;33273;52.254;7.988;2022-12-18T09:18:17;-7.60;96.70
47532;DHT22;33273;52.254;7.988;2022-12-18T09:20:43;-7.30;98.10
47532;DHT22;33273;52.254;7.988;2022-12-18T09:23:09;-7.30;98.00
47532;DHT22;33273;52.254;7.988;2022-12-18T09:25:36;-7.20;97.60
47532;DHT22;33273;52.254;7.988;2022-12-18T09:28:09;-7.20;97.30
47532;DHT22;33273;52.254;7.988;2022-12-18T09:30:38;-7.20;96.90
47532;DHT22;33273;52.254;7.988;2022-12-18T09:33:04;-7.10;96.70
47532;DHT22;33273;52.254;7.988;2022-12-18T09:35:30;-7.10;97.40
47532;DHT22;33273;52.254;7.988;2022-12-18T09:37:55;-7.00;96.90
47532;DHT22;33273;52.254;7.988;2022-12-18T09:40:25;-6.90;97.10
47532;DHT22;33273;52.254;7.988;2022-12-18T09:42:55;-6.80;97.10
47532;DHT22;33273;52.254;7.988;2022-12-18T09:45:23;-6.80;97.10
47532;DHT22;33273;52.254;7.988;2022-12-18T09:47:52;-6.70;97.30
47532;DHT22;33273;52.254;7.988;2022-12-18T09:50:37;-6.50;97.70
47532;DHT22;33273;52.254;7.988;2022-12-18T09:53:16;-6.40;97.30
47532;DHT22;33273;52.254;7.988;2022-12-18T09:55:46;-6.40;96.70
47532;DHT22;33273;52.254;7.988;2022-12-18T10:01:23;-6.20;96.10
47532;DHT22;33273;52.254;7.988;2022-12-18T10:03:49;-6.20;96.00
47532;DHT22;33273;52.254;7.988;2022-12-18T10:09:51;-6.10;95.80
47532;DHT22;33273;52.254;7.988;2022-12-18T10:15:21;-5.90;96.60
47532;DHT22;33273;52.254;7.988;2022-12-18T10:20:51;-5.60;94.80
47532;DHT22;33273;52.254;7.988;2022-12-18T10:23:42;-5.50;95.20
47532;DHT22;33273;52.254;7.988;2022-12-18T10:26:16;-5.50;95.50
47532;DHT22;33273;52.254;7.988;2022-12-18T10:28:43;-5.40;95.60
47532;DHT22;33273;52.254;7.988;2022-12-18T10:31:21;-5.30;95.70
47532;DHT22;33273;52.254;7.988;2022-12-18T10:33:48;-5.20;96.00
47532;DHT22;33273;52.254;7.988;2022-12-18T10:36:14;-4.90;98.60
47532;DHT22;33273;52.254;7.988;2022-12-18T10:38:40;-4.80;97.80
47532;DHT22;33273;52.254;7.988;2022-12-18T10:41:24;-4.80;96.30
47532;DHT22;33273;52.254;7.988;2022-12-18T10:44:20;-4.70;95.10
47532;DHT22;33273;52.254;7.988;2022-12-18T10:46:49;-4.60;94.90
47532;DHT22;33273;52.254;7.988;2022-12-18T10:49:46;-4.60;93.70
47532;DHT22;33273;52.254;7.988;2022-12-18T10:52:22;-4.50;93.50
47532;DHT22;33273;52.254;7.988;2022-12-18T10:54:54;-4.40;93.20
47532;DHT22;33273;52.254;7.988;2022-12-18T10:57:36;-4.40;92.80
47532;DHT22;33273;52.254;7.988;2022-12-18T11:02:50;-4.30;92.40
47532;DHT22;33273;52.254;7.988;2022-12-18T11:05:31;-4.30;92.00
47532;DHT22;33273;52.254;7.988;2022-12-18T11:07:58;-4.20;92.30
47532;DHT22;33273;52.254;7.988;2022-12-18T11:10:31;-4.20;92.50
47532;DHT22;33273;52.254;7.988;2022-12-18T11:13:10;-4.10;91.90
47532;DHT22;33273;52.254;7.988;2022-12-18T11:15:37;-3.90;94.20
47532;DHT22;33273;52.254;7.988;2022-12-18T11:18:25;-3.90;92.50
47532;DHT22;33273;52.254;7.988;2022-12-18T11:21:12;-3.80;91.80
47532;DHT22;33273;52.254;7.988;2022-12-18T11:23:48;-3.90;91.60
47532;DHT22;33273;52.254;7.988;2022-12-18T11:26:15;-3.90;91.10
47532;DHT22;33273;52.254;7.988;2022-12-18T11:28:44;-3.80;90.50
47532;DHT22;33273;52.254;7.988;2022-12-18T11:33:43;-3.80;88.20
47532;DHT22;33273;52.254;7.988;2022-12-18T11:36:11;-3.80;88.20
47532;DHT22;33273;52.254;7.988;2022-12-18T11:38:42;-3.80;88.90
47532;DHT22;33273;52.254;7.988;2022-12-18T11:41:25;-3.80;88.60
47532;DHT22;33273;52.254;7.988;2022-12-18T11:44:28;-3.80;88.10
47532;DHT22;33273;52.254;7.988;2022-12-18T11:49:49;-3.70;88.80
47532;DHT22;33273;52.254;7.988;2022-12-18T11:52:23;-3.60;88.80
47532;DHT22;33273;52.254;7.988;2022-12-18T11:54:56;-3.60;87.90
47532;DHT22;33273;52.254;7.988;2022-12-18T12:08:22;-3.50;89.30
47532;DHT22;33273;52.254;7.988;2022-12-18T12:17:04;-3.30;91.00
47532;DHT22;33273;52.254;7.988;2022-12-18T12:27:55;-2.80;91.60
47532;DHT22;33273;52.254;7.988;2022-12-18T12:39:06;-2.70;90.70
47532;DHT22;33273;52.254;7.988;2022-12-18T12:41:34;-2.60;90.50
47532;DHT22;33273;52.254;7.988;2022-12-18T12:44:52;-1.40;99.90
47532;DHT22;33273;52.254;7.988;2022-12-18T12:47:32;-1.60;99.90
47532;DHT22;33273;52.254;7.988;2022-12-18T12:50:05;-1.90;98.30
47532;DHT22;33273;52.254;7.988;2022-12-18T12:52:39;-2.00;96.20
47532;DHT22;33273;52.254;7.988;2022-12-18T12:55:14;-2.20;94.40
47532;DHT22;33273;52.254;7.988;2022-12-18T12:58:46;-2.30;92.30
47532;DHT22;33273;52.254;7.988;2022-12-18T13:07:01;-2.30;92.90
47532;DHT22;33273;52.254;7.988;2022-12-18T13:09:33;-2.40;90.50
47532;DHT22;33273;52.254;7.988;2022-12-18T13:12:09;-2.50;88.70
47532;DHT22;33273;52.254;7.988;2022-12-18T13:15:21;-2.50;88.90
47532;DHT22;33273;52.254;7.988;2022-12-18T13:18:04;-2.60;88.00
47532;DHT22;33273;52.254;7.988;2022-12-18T13:25:56;-2.60;87.90
47532;DHT22;33273;52.254;7.988;2022-12-18T13:30:57;-2.60;88.50
47532;DHT22;33273;52.254;7.988;2022-12-18T13:38:25;-2.60;90.00
47532;DHT22;33273;52.254;7.988;2022-12-18T13:46:51;-2.40;91.00
47532;DHT22;33273;52.254;7.988;2022-12-18T13:49:36;-2.50;89.10
47532;DHT22;33273;52.254;7.988;2022-12-18T13:52:19;-2.50;88.20
47532;DHT22;33273;52.254;7.988;2022-12-18T13:54:56;-2.60;87.60
47532;DHT22;33273;52.254;7.988;2022-12-18T13:57:25;-2.60;87.60
47532;DHT22;33273;52.254;7.988;2022-12-18T13:59:51;-2.50;89.50
47532;DHT22;33273;52.254;7.988;2022-12-18T14:02:22;-2.50;88.60
47532;DHT22;33273;52.254;7.988;2022-12-18T14:04:49;-2.50;88.10
47532;DHT22;33273;52.254;7.988;2022-12-18T14:07:19;-2.50;87.00
47532;DHT22;33273;52.254;7.988;2022-12-18T14:09:49;-2.50;86.70
47532;DHT22;33273;52.254;7.988;2022-12-18T14:12:21;-2.50;86.20
47532;DHT22;33273;52.254;7.988;2022-12-18T14:15:24;-2.50;86.30
47532;DHT22;33273;52.254;7.988;2022-12-18T14:17:57;-2.60;85.50
47532;DHT22;33273;52.254;7.988;2022-12-18T14:20:29;-2.50;86.90
47532;DHT22;33273;52.254;7.988;2022-12-18T14:22:57;-2.50;86.00
47532;DHT22;33273;52.254;7.988;2022-12-18T14:25:25;-2.50;85.60
47532;DHT22;33273;52.254;7.988;2022-12-18T14:28:12;-2.60;85.10
47532;DHT22;33273;52.254;7.988;2022-12-18T14:30:44;-2.50;83.80
47532;DHT22;33273;52.254;7.988;2022-12-18T14:33:15;-2.50;83.30
47532;DHT22;33273;52.254;7.988;2022-12-18T14:35:52;-2.60;83.10
47532;DHT22;33273;52.254;7.988;2022-12-18T14:43:27;-2.60;82.70
47532;DHT22;33273;52.254;7.988;2022-12-18T14:45:53;-2.60;82.80
47532;DHT22;33273;52.254;7.988;2022-12-18T14:48:39;-2.60;82.50
47532;DHT22;33273;52.254;7.988;2022-12-18T14:51:17;-2.60;82.30
47532;DHT22;33273;52.254;7.988;2022-12-18T14:53:46;-2.60;82.10
47532;DHT22;33273;52.254;7.988;2022-12-18T14:58:38;-2.60;81.10
47532;DHT22;33273;52.254;7.988;2022-12-18T15:01:05;-2.60;80.50
47532;DHT22;33273;52.254;7.988;2022-12-18T15:03:31;-2.60;80.30
47532;DHT22;33273;52.254;7.988;2022-12-18T15:06:16;-2.50;79.80
47532;DHT22;33273;52.254;7.988;2022-12-18T15:08:42;-2.60;79.90
47532;DHT22;33273;52.254;7.988;2022-12-18T15:16:53;-2.60;80.30
47532;DHT22;33273;52.254;7.988;2022-12-18T15:19:22;-2.70;80.20
47532;DHT22;33273;52.254;7.988;2022-12-18T15:21:50;-2.70;79.70
47532;DHT22;33273;52.254;7.988;2022-12-18T15:24:18;-2.70;79.00
47532;DHT22;33273;52.254;7.988;2022-12-18T15:26:45;-2.60;78.00
47532;DHT22;33273;52.254;7.988;2022-12-18T15:29:21;-2.60;77.80
47532;DHT22;33273;52.254;7.988;2022-12-18T15:32:17;-2.50;77.50
47532;DHT22;33273;52.254;7.988;2022-12-18T15:34:44;-2.50;77.60
47532;DHT22;33273;52.254;7.988;2022-12-18T15:37:11;-2.50;76.00
47532;DHT22;33273;52.254;7.988;2022-12-18T15:39:37;-2.50;76.50
47532;DHT22;33273;52.254;7.988;2022-12-18T15:42:08;-2.40;74.60
47532;DHT22;33273;52.254;7.988;2022-12-18T15:44:52;-2.10;82.90
47532;DHT22;33273;52.254;7.988;2022-12-18T15:47:18;-2.20;75.40
47532;DHT22;33273;52.254;7.988;2022-12-18T15:49:44;-2.20;73.50
47532;DHT22;33273;52.254;7.988;2022-12-18T15:52:12;-2.20;73.40
47532;DHT22;33273;52.254;7.988;2022-12-18T15:54:41;-2.20;71.90
47532;DHT22;33273;52.254;7.988;2022-12-18T15:57:25;-2.20;72.70
47532;DHT22;33273;52.254;7.988;2022-12-18T15:59:53;-2.20;72.60
47532;DHT22;33273;52.254;7.988;2022-12-18T16:02:21;-2.20;71.50
47532;DHT22;33273;52.254;7.988;2022-12-18T16:04:49;-2.20;71.40
47532;DHT22;33273;52.254;7.988;2022-12-18T16:07:16;-2.10;70.00
47532;DHT22;33273;52.254;7.988;2022-12-18T16:09:42;-2.10;71.20
47532;DHT22;33273;52.254;7.988;2022-12-18T16:12:22;-2.10;68.80
47532;DHT22;33273;52.254;7.988;2022-12-18T16:14:49;-2.00;69.20
47532;DHT22;33273;52.254;7.988;2022-12-18T16:17:16;-2.00;68.60
47532;DHT22;33273;52.254;7.988;2022-12-18T16:19:42;-2.00;68.30
47532;DHT22;33273;52.254;7.988;2022-12-18T16:22:19;-1.90;67.10
47532;DHT22;33273;52.254;7.988;2022-12-18T16:24:46;-1.80;66.10
47532;DHT22;33273;52.254;7.988;2022-12-18T16:27:15;-1.90;65.30
47532;DHT22;33273;52.254;7.988;2022-12-18T16:29:41;-1.80;64.60
47532;DHT22;33273;52.254;7.988;2022-12-18T16:32:08;-1.80;63.90
47532;DHT22;33273;52.254;7.988;2022-12-18T16:34:37;-1.80;63.10
47532;DHT22;33273;52.254;7.988;2022-12-18T16:37:08;-1.80;63.40
47532;DHT22;33273;52.254;7.988;2022-12-18T16:39:35;-1.70;61.40
47532;DHT22;33273;52.254;7.988;2022-12-18T16:42:04;-1.70;61.60
47532;DHT22;33273;52.254;7.988;2022-12-18T16:44:30;-1.70;60.00
47532;DHT22;33273;52.254;7.988;2022-12-18T16:46:56;-1.60;59.50
47532;DHT22;33273;52.254;7.988;2022-12-18T16:49:28;-1.60;58.90
47532;DHT22;33273;52.254;7.988;2022-12-18T16:51:54;-1.50;57.90
47532;DHT22;33273;52.254;7.988;2022-12-18T16:54:20;-1.50;57.10
47532;DHT22;33273;52.254;7.988;2022-12-18T16:56:46;-1.50;55.90
47532;DHT22;33273;52.254;7.988;2022-12-18T16:59:14;-1.50;56.70
47532;DHT22;33273;52.254;7.988;2022-12-18T17:01:41;-1.50;56.30
47532;DHT22;33273;52.254;7.988;2022-12-18T17:04:08;-1.40;56.40
47532;DHT22;33273;52.254;7.988;2022-12-18T17:06:35;-1.50;56.90
47532;DHT22;33273;52.254;7.988;2022-12-18T17:09:03;-1.50;57.00
47532;DHT22;33273;52.254;7.988;2022-12-18T17:11:32;-1.50;56.30
47532;DHT22;33273;52.254;7.988;2022-12-18T17:13:58;-1.50;56.80
47532;DHT22;33273;52.254;7.988;2022-12-18T17:16:25;-1.50;56.70
47532;DHT22;33273;52.254;7.988;2022-12-18T17:18:54;-1.40;55.80
47532;DHT22;33273;52.254;7.988;2022-12-18T17:21:21;-1.40;55.90
47532;DHT22;33273;52.254;7.988;2022-12-18T17:23:47;-1.40;55.20
47532;DHT22;33273;52.254;7.988;2022-12-18T17:26:13;-1.30;54.50
47532;DHT22;33273;52.254;7.988;2022-12-18T17:28:39;-1.30;54.30
47532;DHT22;33273;52.254;7.988;2022-12-18T17:31:15;-1.20;53.50
47532;DHT22;33273;52.254;7.988;2022-12-18T17:33:41;-1.20;52.80
47532;DHT22;33273;52.254;7.988;2022-12-18T17:36:08;-1.20;53.10
47532;DHT22;33273;52.254;7.988;2022-12-18T17:38:34;-1.10;52.50
47532;DHT22;33273;52.254;7.988;2022-12-18T17:41:07;-1.00;52.30
47532;DHT22;33273;52.254;7.988;2022-12-18T17:43:33;-1.00;51.70
47532;DHT22;33273;52.254;7.988;2022-12-18T17:46:05;-1.00;52.20
47532;DHT22;33273;52.254;7.988;2022-12-18T17:48:34;-1.00;51.70